createdAt,value
2023-02-22T00:01:07.715Z,6.90
2023-02-22T00:03:35.946Z,5.53
2023-02-22T00:06:06.152Z,5.17
2023-02-22T00:08:37.670Z,8.53
2023-02-22T00:11:08.695Z,7.77
2023-02-22T00:13:37.974Z,5.50
2023-02-22T00:16:06.953Z,7.27
2023-02-22T00:18:35.111Z,5.40
2023-02-22T00:21:03.381Z,6.37
2023-02-22T00:23:32.785Z,5.90
2023-02-22T00:26:02.377Z,4.63
2023-02-22T00:28:30.841Z,7.30
2023-02-22T00:30:59.988Z,12.37
2023-02-22T00:33:28.478Z,5.83
2023-02-22T00:35:56.597Z,4.63
2023-02-22T00:38:24.940Z,6.33
2023-02-22T00:40:53.319Z,5.53
2023-02-22T00:43:22.922Z,5.50
2023-02-22T00:45:51.057Z,4.70
2023-02-22T00:48:19.668Z,6.67
2023-02-22T00:50:49.219Z,4.50
2023-02-22T00:53:17.867Z,5.17
2023-02-22T00:55:45.945Z,8.03
2023-02-22T00:58:14.116Z,4.97
2023-02-22T01:00:44.361Z,4.77
2023-02-22T01:03:15.872Z,3.27
2023-02-22T01:05:44.512Z,4.03
2023-02-22T01:08:14.510Z,4.30
2023-02-22T01:10:43.309Z,5.07
2023-02-22T01:13:12.549Z,4.03
2023-02-22T01:15:42.828Z,3.93
2023-02-22T01:18:17.441Z,4.20
2023-02-22T01:20:48.108Z,3.53
2023-02-22T01:23:17.520Z,3.63
2023-02-22T01:25:45.726Z,4.00
2023-02-22T01:28:15.825Z,4.93
2023-02-22T01:30:44.017Z,3.97
2023-02-22T01:33:15.602Z,7.00
2023-02-22T01:35:46.370Z,5.20
2023-02-22T01:38:15.312Z,6.80
2023-02-22T01:40:47.807Z,3.67
2023-02-22T01:43:19.964Z,4.37
2023-02-22T01:45:57.297Z,5.13
2023-02-22T01:48:31.545Z,6.67
2023-02-22T01:51:02.515Z,9.30
2023-02-22T01:53:35.706Z,4.67
2023-02-22T01:56:05.258Z,4.57
2023-02-22T01:58:36.638Z,5.40
2023-02-22T02:01:04.936Z,6.67
2023-02-22T02:03:37.777Z,5.00
2023-02-22T02:06:11.946Z,8.13
2023-02-22T02:08:49.858Z,5.83
2023-02-22T02:11:21.497Z,9.70
2023-02-22T02:13:52.624Z,8.23
2023-02-22T02:16:23.091Z,6.17
2023-02-22T02:18:53.277Z,8.33
2023-02-22T02:21:50.619Z,5.97
2023-02-22T02:24:43.336Z,6.77
2023-02-22T02:27:18.482Z,8.13
2023-02-22T02:30:19.682Z,5.50
2023-02-22T02:32:58.789Z,6.03
2023-02-22T02:35:38.759Z,5.73
2023-02-22T02:38:16.451Z,4.80
2023-02-22T02:40:50.101Z,6.33
2023-02-22T02:43:26.527Z,5.03
2023-02-22T02:46:00.004Z,4.73
2023-02-22T02:48:32.218Z,4.20
2023-02-22T02:51:02.398Z,5.90
2023-02-22T02:53:35.791Z,3.63
2023-02-22T02:56:04.597Z,6.77
2023-02-22T02:58:32.869Z,5.43
2023-02-22T03:01:05.496Z,5.30
2023-02-22T03:04:01.150Z,9.40
2023-02-22T03:07:04.589Z,6.23
2023-02-22T03:09:48.241Z,5.17
2023-02-22T03:12:27.794Z,5.67
2023-02-22T03:15:07.348Z,7.03
2023-02-22T03:17:46.300Z,4.10
2023-02-22T03:20:23.692Z,5.53
2023-02-22T03:22:58.774Z,7.13
2023-02-22T03:25:34.190Z,5.43
2023-02-22T03:28:07.395Z,5.40
2023-02-22T03:30:40.690Z,8.13
2023-02-22T03:33:12.880Z,8.90
2023-02-22T03:35:48.523Z,4.93
2023-02-22T03:38:20.352Z,6.37
2023-02-22T03:40:54.524Z,5.93
2023-02-22T03:43:26.950Z,5.63
2023-02-22T03:45:59.671Z,6.33
2023-02-22T03:48:37.581Z,7.17
2023-02-22T03:51:08.615Z,13.83
2023-02-22T03:53:37.860Z,7.67
2023-02-22T03:56:12.152Z,14.20
2023-02-22T03:58:45.522Z,5.97
2023-02-22T04:01:15.778Z,8.03
2023-02-22T04:03:44.312Z,7.07
2023-02-22T04:06:14.643Z,6.17
2023-02-22T04:08:44.117Z,6.90
2023-02-22T04:11:12.573Z,6.77
2023-02-22T04:13:42.355Z,6.60
2023-02-22T04:16:10.591Z,6.87
2023-02-22T04:18:38.925Z,5.87
2023-02-22T04:21:09.212Z,5.93
2023-02-22T04:23:45.354Z,6.87
2023-02-22T04:26:14.656Z,7.40
2023-02-22T04:28:44.930Z,7.83
2023-02-22T04:31:19.515Z,6.73
2023-02-22T04:33:47.934Z,6.70
2023-02-22T04:36:19.721Z,6.83
2023-02-22T04:38:49.873Z,12.13
2023-02-22T04:41:19.585Z,12.27
2023-02-22T04:43:48.453Z,11.00
2023-02-22T04:46:22.831Z,10.10
2023-02-22T04:48:51.242Z,9.37
2023-02-22T04:51:22.527Z,7.17
2023-02-22T04:54:24.209Z,7.73
2023-02-22T04:56:53.331Z,8.50
2023-02-22T04:59:21.508Z,6.40
2023-02-22T05:01:55.688Z,5.20
2023-02-22T05:04:23.802Z,7.80
2023-02-22T05:06:54.112Z,9.80
2023-02-22T05:09:24.409Z,6.20
2023-02-22T05:11:52.613Z,8.77
2023-02-22T05:14:20.732Z,9.27
2023-02-22T05:16:50.183Z,9.03
2023-02-22T05:19:18.333Z,8.07
2023-02-22T05:21:46.483Z,12.20
2023-02-22T05:24:14.552Z,8.90
2023-02-22T05:26:44.138Z,9.20
2023-02-22T05:29:12.763Z,8.70
2023-02-22T05:31:41.985Z,6.77
2023-02-22T05:34:10.372Z,5.80
2023-02-22T05:36:38.475Z,11.83
2023-02-22T05:39:06.834Z,9.17
2023-02-22T05:41:34.901Z,12.57
2023-02-22T05:44:05.082Z,16.10
2023-02-22T05:46:33.251Z,14.07
2023-02-22T05:49:01.448Z,15.87
2023-02-22T05:51:29.627Z,17.03
2023-02-22T05:53:57.730Z,16.30
2023-02-22T05:56:30.362Z,16.67
2023-02-22T05:58:58.730Z,14.33
2023-02-22T06:01:28.477Z,18.53
2023-02-22T06:03:56.704Z,13.47
2023-02-22T06:06:24.805Z,12.77
2023-02-22T06:08:52.967Z,11.97
2023-02-22T06:11:21.159Z,10.07
2023-02-22T06:13:53.171Z,11.97
2023-02-22T06:16:22.252Z,11.67
2023-02-22T06:18:51.991Z,9.90
2023-02-22T06:21:20.179Z,10.77
2023-02-22T06:23:48.334Z,9.80
2023-02-22T06:26:17.713Z,10.30
2023-02-22T06:28:46.506Z,11.40
2023-02-22T06:31:15.013Z,15.30
2023-02-22T06:33:43.286Z,10.67
2023-02-22T06:36:12.869Z,10.63
2023-02-22T06:38:41.024Z,13.50
2023-02-22T06:41:10.432Z,12.90
2023-02-22T06:43:38.651Z,10.60
2023-02-22T06:46:10.616Z,9.47
2023-02-22T06:48:40.170Z,7.83
2023-02-22T06:51:09.467Z,5.63
2023-02-22T06:53:38.982Z,11.47
2023-02-22T06:56:07.847Z,9.13
2023-02-22T06:58:35.944Z,8.07
2023-02-22T07:01:04.246Z,7.97
2023-02-22T07:03:32.531Z,7.07
2023-02-22T07:06:00.745Z,7.40
2023-02-22T07:08:28.914Z,7.70
2023-02-22T07:10:58.545Z,5.07
2023-02-22T07:13:26.702Z,5.77
2023-02-22T07:15:54.924Z,7.60
2023-02-22T07:18:24.200Z,6.43
2023-02-22T07:20:52.326Z,6.90
2023-02-22T07:23:20.591Z,5.77
2023-02-22T07:25:49.077Z,12.53
2023-02-22T07:28:19.122Z,7.67
2023-02-22T07:30:47.785Z,5.07
2023-02-22T07:33:16.306Z,6.70
2023-02-22T07:35:47.482Z,7.57
2023-02-22T07:38:17.441Z,9.07
2023-02-22T07:40:47.806Z,4.20
2023-02-22T07:43:19.376Z,7.20
2023-02-22T07:45:49.061Z,6.63
2023-02-22T07:48:18.913Z,5.37
2023-02-22T07:50:47.718Z,6.57
2023-02-22T07:53:19.937Z,6.60
2023-02-22T07:55:51.142Z,5.73
2023-02-22T07:58:24.740Z,8.00
2023-02-22T08:00:53.459Z,8.80
2023-02-22T08:03:23.845Z,5.77
2023-02-22T08:05:54.347Z,8.17
2023-02-22T08:08:22.960Z,5.27
2023-02-22T08:10:52.317Z,14.07
2023-02-22T08:13:23.351Z,13.27
2023-02-22T08:15:53.379Z,8.93
2023-02-22T08:18:22.987Z,8.47
2023-02-22T08:20:53.188Z,5.53
2023-02-22T08:23:25.389Z,8.37
2023-02-22T08:25:54.346Z,9.67
2023-02-22T08:28:25.783Z,6.17
2023-02-22T08:30:54.402Z,7.53
2023-02-22T08:33:23.234Z,10.32
2023-02-22T08:35:51.904Z,14.35
2023-02-22T08:38:22.732Z,8.63
2023-02-22T08:40:51.544Z,11.10
2023-02-22T08:43:20.500Z,7.72
2023-02-22T08:45:51.888Z,10.57
2023-02-22T08:48:21.320Z,10.70
2023-02-22T08:50:50.041Z,6.68
2023-02-22T08:53:18.514Z,6.25
2023-02-22T08:55:46.943Z,10.27
2023-02-22T08:58:15.320Z,7.40
2023-02-22T09:00:44.861Z,7.50
2023-02-22T09:03:16.248Z,8.07
2023-02-22T09:05:45.407Z,9.88
2023-02-22T09:08:13.915Z,8.63
2023-02-22T09:10:42.061Z,11.07
2023-02-22T09:13:10.478Z,8.25
2023-02-22T09:15:39.785Z,9.88
2023-02-22T09:18:09.397Z,14.40
2023-02-22T09:20:39.014Z,11.77
2023-02-22T09:23:09.847Z,12.48
2023-02-22T09:25:38.882Z,9.25
2023-02-22T09:28:07.187Z,13.55
2023-02-22T09:30:37.072Z,14.00
2023-02-22T09:33:10.047Z,12.90
2023-02-22T09:35:42.569Z,17.30
2023-02-22T09:38:11.547Z,12.18
2023-02-22T09:40:45.231Z,13.25
2023-02-22T09:43:26.232Z,9.68
2023-02-22T09:46:12.158Z,12.25
2023-02-22T09:48:52.664Z,8.93
2023-02-22T09:51:27.472Z,11.63
2023-02-22T09:54:00.234Z,8.38
2023-02-22T09:56:31.191Z,8.25
2023-02-22T09:59:03.876Z,8.80
2023-02-22T10:01:36.609Z,8.73
2023-02-22T10:04:12.554Z,11.90
2023-02-22T10:06:52.660Z,9.43
2023-02-22T10:09:29.362Z,10.02
2023-02-22T10:12:00.297Z,10.68
2023-02-22T10:14:44.500Z,9.10
2023-02-22T10:17:23.461Z,9.25
2023-02-22T10:20:06.229Z,7.32
2023-02-22T10:22:54.223Z,6.57
2023-02-22T10:25:25.101Z,9.13
2023-02-22T10:27:58.920Z,7.38
2023-02-22T10:30:34.344Z,7.35
2023-02-22T10:33:10.299Z,9.30
2023-02-22T10:35:41.288Z,9.07
2023-02-22T10:38:18.113Z,12.02
2023-02-22T10:40:50.857Z,12.20
2023-02-22T10:43:19.132Z,9.07
2023-02-22T10:45:47.390Z,9.85
2023-02-22T10:48:18.683Z,7.50
2023-02-22T10:50:47.862Z,8.60
2023-02-22T10:53:17.781Z,9.88
2023-02-22T10:56:14.125Z,8.32
2023-02-22T10:58:51.571Z,8.32
2023-02-22T11:01:27.425Z,10.85
2023-02-22T11:04:06.175Z,13.35
2023-02-22T11:06:35.941Z,9.73
2023-02-22T11:09:23.567Z,7.55
2023-02-22T11:12:08.542Z,9.85
2023-02-22T11:14:36.652Z,8.65
2023-02-22T11:17:10.755Z,10.02
2023-02-22T11:19:39.332Z,9.07
2023-02-22T11:22:14.876Z,7.03
2023-02-22T11:24:50.935Z,9.88
2023-02-22T11:27:29.552Z,7.68
2023-02-22T11:30:08.104Z,7.75
2023-02-22T11:32:36.625Z,8.48
2023-02-22T11:35:31.839Z,7.28
2023-02-22T11:38:13.735Z,8.30
2023-02-22T11:40:44.011Z,8.32
2023-02-22T11:43:18.537Z,7.90
2023-02-22T11:46:03.280Z,8.80
2023-02-22T11:48:36.778Z,8.77
2023-02-22T11:51:17.261Z,7.72
2023-02-22T11:54:00.447Z,8.48
2023-02-22T11:56:37.975Z,7.38
2023-02-22T11:59:17.111Z,8.18
2023-02-22T12:01:51.428Z,13.13
2023-02-22T12:04:42.313Z,8.93
2023-02-22T12:07:26.200Z,9.93
2023-02-22T12:10:05.559Z,9.65
2023-02-22T12:12:44.146Z,6.90
2023-02-22T12:15:23.610Z,9.48
2023-02-22T12:18:00.264Z,9.15
2023-02-22T12:20:37.279Z,7.13
2023-02-22T12:23:16.298Z,8.25
2023-02-22T12:25:58.581Z,8.10
2023-02-22T12:28:35.933Z,9.35
2023-02-22T12:31:17.157Z,7.32
2023-02-22T12:33:54.235Z,11.77
2023-02-22T12:36:26.787Z,8.45
2023-02-22T12:39:00.288Z,8.88
2023-02-22T12:41:35.697Z,7.93
2023-02-22T12:44:11.066Z,9.07
2023-02-22T12:46:43.247Z,9.43
2023-02-22T12:49:18.909Z,7.47
2023-02-22T12:51:55.001Z,8.10
2023-02-22T12:54:35.379Z,8.77
2023-02-22T12:57:09.992Z,9.55
2023-02-22T12:59:45.356Z,9.98
2023-02-22T13:02:20.235Z,12.68
2023-02-22T13:04:48.822Z,7.43
2023-02-22T13:07:29.590Z,8.95
2023-02-22T13:10:26.417Z,9.80
2023-02-22T13:13:04.007Z,8.63
2023-02-22T13:15:43.017Z,9.55
2023-02-22T13:18:18.653Z,12.00
2023-02-22T13:20:54.024Z,9.07
2023-02-22T13:23:39.189Z,7.18
2023-02-22T13:26:16.452Z,7.32
2023-02-22T13:28:48.328Z,8.68
2023-02-22T13:31:58.469Z,8.90
2023-02-22T13:34:42.040Z,8.68
2023-02-22T13:37:26.076Z,8.23
2023-02-22T13:40:20.130Z,11.77
2023-02-22T13:43:21.745Z,9.60
2023-02-22T13:46:24.227Z,9.57
2023-02-22T13:49:18.577Z,13.52
2023-02-22T13:51:52.193Z,8.98
2023-02-22T13:54:27.514Z,7.88
2023-02-22T13:56:58.308Z,7.70
2023-02-22T13:59:30.242Z,8.80
2023-02-22T14:01:59.435Z,7.63
2023-02-22T14:04:46.846Z,8.32
2023-02-22T14:07:57.713Z,10.60
2023-02-22T14:10:48.577Z,9.90
2023-02-22T14:13:18.334Z,7.43
2023-02-22T14:16:21.380Z,7.13
2023-02-22T14:18:52.171Z,9.00
2023-02-22T14:21:23.466Z,9.07
2023-02-22T14:23:53.878Z,9.95
2023-02-22T14:26:27.526Z,7.32
2023-02-22T14:28:57.868Z,7.53
2023-02-22T14:31:36.367Z,7.28
2023-02-22T14:34:11.468Z,7.30
2023-02-22T14:36:51.707Z,9.52
2023-02-22T14:39:26.837Z,6.75
2023-02-22T14:42:01.956Z,6.28
2023-02-22T14:44:36.546Z,8.18
2023-02-22T14:47:08.496Z,7.22
2023-02-22T14:49:41.740Z,10.00
2023-02-22T14:52:20.977Z,7.28
2023-02-22T14:55:17.354Z,8.18
2023-02-22T14:58:01.433Z,7.38
2023-02-22T15:00:40.141Z,10.85
2023-02-22T15:03:19.640Z,12.23
2023-02-22T15:05:49.784Z,8.00
2023-02-22T15:08:28.130Z,9.80
2023-02-22T15:10:56.771Z,8.05
2023-02-22T15:13:27.509Z,14.35
2023-02-22T15:16:01.381Z,8.80
2023-02-22T15:18:36.599Z,8.02
2023-02-22T15:21:10.505Z,6.50
2023-02-22T15:23:46.813Z,11.50
2023-02-22T15:26:26.729Z,11.82
2023-02-22T15:28:56.478Z,11.07
2023-02-22T15:31:29.212Z,9.20
2023-02-22T15:33:57.379Z,7.43
2023-02-22T15:36:28.564Z,8.33
2023-02-22T15:38:58.295Z,8.80
2023-02-22T15:41:31.579Z,10.00
2023-02-22T15:44:17.658Z,6.90
2023-02-22T15:46:51.103Z,6.47
2023-02-22T15:49:23.881Z,6.83
2023-02-22T15:52:05.658Z,8.27
2023-02-22T15:54:43.684Z,7.87
2023-02-22T15:57:16.510Z,7.90
2023-02-22T15:59:50.057Z,6.70
2023-02-22T16:02:36.045Z,7.77
2023-02-22T16:05:08.673Z,13.23
2023-02-22T16:07:45.303Z,10.13
2023-02-22T16:10:25.691Z,11.43
2023-02-22T16:13:05.938Z,9.00
2023-02-22T16:15:35.208Z,7.00
2023-02-22T16:18:29.997Z,10.30
2023-02-22T16:21:05.546Z,10.77
2023-02-22T16:23:45.224Z,6.23
2023-02-22T16:26:24.702Z,9.80
2023-02-22T16:28:55.686Z,7.27
2023-02-22T16:31:26.662Z,8.57
2023-02-22T16:33:57.016Z,8.87
2023-02-22T16:36:39.340Z,11.23
2023-02-22T16:39:09.592Z,14.17
2023-02-22T16:41:39.215Z,10.27
2023-02-22T16:44:08.988Z,10.53
2023-02-22T16:46:38.169Z,12.30
2023-02-22T16:49:06.883Z,7.77
2023-02-22T16:51:43.052Z,12.20
2023-02-22T16:54:14.793Z,12.30
2023-02-22T16:56:45.383Z,15.40
2023-02-22T16:59:17.214Z,17.63
2023-02-22T17:01:45.941Z,19.00
2023-02-22T17:04:18.255Z,17.43
2023-02-22T17:06:46.673Z,11.20
2023-02-22T17:09:16.649Z,12.40
2023-02-22T17:11:47.356Z,12.50
2023-02-22T17:14:23.770Z,17.20
2023-02-22T17:16:52.842Z,11.73
2023-02-22T17:19:24.525Z,17.43
2023-02-22T17:21:54.212Z,19.53
2023-02-22T17:24:29.640Z,14.83
2023-02-22T17:27:00.370Z,16.50
2023-02-22T17:29:30.677Z,14.33
2023-02-22T17:32:00.148Z,17.13
2023-02-22T17:34:32.852Z,16.20
2023-02-22T17:37:03.511Z,19.43
2023-02-22T17:39:33.061Z,14.10
2023-02-22T17:42:04.942Z,15.93
2023-02-22T17:44:35.447Z,18.50
2023-02-22T17:47:04.842Z,17.87
2023-02-22T17:49:33.549Z,16.57
2023-02-22T17:52:07.008Z,18.40
2023-02-22T17:54:36.235Z,15.83
2023-02-22T17:57:06.810Z,19.13
2023-02-22T17:59:36.037Z,19.00
2023-02-22T18:02:09.025Z,15.30
2023-02-22T18:04:39.814Z,17.40
2023-02-22T18:07:08.483Z,21.23
2023-02-22T18:09:38.141Z,15.50
2023-02-22T18:12:09.365Z,18.77
2023-02-22T18:14:39.136Z,14.47
2023-02-22T18:17:08.697Z,24.87
2023-02-22T18:19:37.826Z,19.23
2023-02-22T18:22:09.863Z,15.83
2023-02-22T18:24:38.866Z,18.47
2023-02-22T18:27:15.405Z,16.90
2023-02-22T18:29:45.004Z,16.17
2023-02-22T18:32:15.813Z,15.50
2023-02-22T18:34:46.024Z,16.63
2023-02-22T18:37:20.962Z,16.40
2023-02-22T18:39:51.209Z,16.50
2023-02-22T18:42:23.805Z,19.40
2023-02-22T18:44:53.995Z,20.70
2023-02-22T18:47:24.433Z,20.23
2023-02-22T18:49:56.043Z,21.27
2023-02-22T18:52:25.909Z,24.47
2023-02-22T18:54:55.691Z,23.23
2023-02-22T18:57:27.147Z,20.40
2023-02-22T19:00:00.056Z,20.50
2023-02-22T19:02:30.610Z,20.57
2023-02-22T19:05:01.638Z,20.73
2023-02-22T19:07:33.362Z,20.30
2023-02-22T19:10:03.057Z,22.93
2023-02-22T19:12:34.579Z,22.00
2023-02-22T19:15:03.720Z,24.60
2023-02-22T19:17:40.166Z,26.60
2023-02-22T19:20:11.469Z,24.63
2023-02-22T19:22:44.112Z,22.67
2023-02-22T19:25:13.174Z,26.10
2023-02-22T19:27:45.016Z,23.03
2023-02-22T19:30:17.690Z,23.13
2023-02-22T19:32:48.079Z,19.43
2023-02-22T19:35:26.763Z,19.10
2023-02-22T19:37:57.725Z,16.03
2023-02-22T19:40:27.818Z,16.73
2023-02-22T19:43:00.347Z,16.47
2023-02-22T19:45:30.937Z,18.83
2023-02-22T19:48:00.420Z,17.57
2023-02-22T19:50:30.900Z,19.03
2023-02-22T19:53:01.178Z,18.33
2023-02-22T19:55:32.947Z,20.07
2023-02-22T19:58:04.469Z,20.60
2023-02-22T20:00:38.581Z,18.93
2023-02-22T20:03:12.433Z,25.90
2023-02-22T20:05:43.538Z,19.77
2023-02-22T20:08:14.621Z,29.13
2023-02-22T20:10:44.087Z,33.17
2023-02-22T20:13:17.675Z,27.93
2023-02-22T20:15:48.817Z,26.33
2023-02-22T20:18:22.046Z,23.37
2023-02-22T20:20:53.874Z,28.17
2023-02-22T20:23:24.081Z,28.40
2023-02-22T20:26:04.678Z,24.07
2023-02-22T20:28:42.858Z,27.27
2023-02-22T20:31:17.642Z,30.23
2023-02-22T20:33:51.258Z,24.63
2023-02-22T20:36:22.814Z,31.97
2023-02-22T20:38:57.292Z,26.93
2023-02-22T20:41:29.502Z,26.90
2023-02-22T20:44:01.513Z,28.43
2023-02-22T20:46:36.527Z,24.60
2023-02-22T20:49:13.028Z,29.73
2023-02-22T20:51:45.039Z,19.73
2023-02-22T20:54:14.033Z,24.63
2023-02-22T20:56:46.962Z,23.87
2023-02-22T20:59:21.186Z,21.97
2023-02-22T21:01:53.594Z,23.57
2023-02-22T21:04:25.017Z,24.93
2023-02-22T21:06:54.342Z,21.80
2023-02-22T21:09:24.415Z,29.63
2023-02-22T21:11:54.487Z,28.60
2023-02-22T21:14:25.944Z,28.80
2023-02-22T21:16:58.054Z,21.87
2023-02-22T21:19:27.427Z,23.00
2023-02-22T21:21:57.290Z,25.33
2023-02-22T21:24:29.134Z,22.63
2023-02-22T21:26:59.403Z,21.90
2023-02-22T21:29:31.543Z,25.07
2023-02-22T21:32:02.127Z,22.40
2023-02-22T21:34:34.379Z,23.50
2023-02-22T21:37:08.531Z,31.87
2023-02-22T21:39:38.364Z,20.90
2023-02-22T21:42:07.587Z,22.47
2023-02-22T21:44:39.350Z,20.53
2023-02-22T21:47:08.983Z,22.87
2023-02-22T21:49:38.171Z,21.03
2023-02-22T21:52:08.080Z,22.90
2023-02-22T21:54:36.316Z,25.93
2023-02-22T21:57:06.418Z,21.07
2023-02-22T21:59:34.790Z,24.20
2023-02-22T22:02:04.386Z,22.97
2023-02-22T22:04:35.105Z,24.70
2023-02-22T22:07:03.999Z,24.43
2023-02-22T22:09:36.696Z,21.87
2023-02-22T22:12:06.040Z,25.20
2023-02-22T22:14:35.858Z,21.93
2023-02-22T22:17:08.864Z,23.03
2023-02-22T22:19:40.464Z,23.40
2023-02-22T22:22:08.966Z,20.93
2023-02-22T22:24:38.068Z,20.80
2023-02-22T22:27:09.780Z,27.37
2023-02-22T22:29:37.877Z,25.40
2023-02-22T22:32:07.750Z,22.93
2023-02-22T22:34:38.010Z,26.67
2023-02-22T22:37:06.311Z,26.07
2023-02-22T22:39:34.399Z,20.00
2023-02-22T22:42:02.549Z,22.00
2023-02-22T22:44:32.955Z,22.93
2023-02-22T22:47:01.356Z,24.97
2023-02-22T22:49:32.698Z,19.20
2023-02-22T22:52:01.022Z,22.40
2023-02-22T22:54:29.099Z,22.50
2023-02-22T22:56:57.321Z,23.93
2023-02-22T22:59:25.545Z,23.17
2023-02-22T23:01:56.625Z,19.63
2023-02-22T23:04:25.550Z,22.50
2023-02-22T23:06:56.607Z,16.57
2023-02-22T23:09:26.381Z,21.13
2023-02-22T23:11:56.745Z,23.50
2023-02-22T23:14:26.736Z,19.60
2023-02-22T23:17:03.371Z,20.93
2023-02-22T23:19:32.004Z,20.83
2023-02-22T23:22:05.327Z,21.50
2023-02-22T23:24:36.194Z,22.10
2023-02-22T23:27:07.270Z,20.17
2023-02-22T23:29:38.048Z,21.57
2023-02-22T23:32:07.006Z,20.67
2023-02-22T23:34:36.567Z,18.07
2023-02-22T23:37:09.954Z,17.30
2023-02-22T23:39:38.524Z,21.80
2023-02-22T23:42:08.815Z,25.67
2023-02-22T23:44:36.999Z,23.17
2023-02-22T23:47:05.678Z,19.23
2023-02-22T23:49:38.029Z,19.93
2023-02-22T23:52:09.472Z,21.00
2023-02-22T23:54:43.855Z,22.00
2023-02-22T23:57:12.191Z,22.67
2023-02-22T23:59:40.922Z,24.87
